N2T KVPZ-KORD
Flight info
| Callsign | N2T |
|---|---|
| Flight time | 0h 14m |
| Altitude | 9000 |
| Route | PRADY |
| Aircraft | DA42/L-SBDGRY/S |
Departure
| Time | 2026-04-21 17:37 |
|---|---|
| Airport | Porter County Municipal Airport (KVPZ) |
Arrival
| Time | 2026-04-21 17:51 |
|---|---|
| Airport | Chicago O'Hare International Airport (KORD) |
| Time | Latitude | Longitude | Altitude | Speed | Heading |
|---|---|---|---|---|---|
| 2026-04-21 17:36 | 41.75888 | -87.18452 | 8997 ft | 179 kts | 326° |
| 2026-04-21 17:37 | 41.77325 | -87.19253 | 8996 ft | 180 kts | 326° |
| 2026-04-21 17:37 | 41.78479 | -87.19896 | 8998 ft | 180 kts | 326° |
| 2026-04-21 17:37 | 41.79243 | -87.20322 | 8995 ft | 179 kts | 326° |
| 2026-04-21 17:37 | 41.80786 | -87.21184 | 8999 ft | 180 kts | 326° |
| 2026-04-21 17:38 | 41.81939 | -87.21827 | 8996 ft | 180 kts | 326° |
| 2026-04-21 17:38 | 41.83097 | -87.22474 | 8999 ft | 180 kts | 326° |
| 2026-04-21 17:38 | 41.83861 | -87.22901 | 8998 ft | 180 kts | 326° |
| 2026-04-21 17:38 | 41.85018 | -87.23547 | 8998 ft | 180 kts | 326° |
| 2026-04-21 17:39 | 41.86174 | -87.24193 | 8997 ft | 180 kts | 326° |
| 2026-04-21 17:39 | 41.87332 | -87.24841 | 8997 ft | 180 kts | 326° |
| 2026-04-21 17:39 | 41.88492 | -87.25490 | 8995 ft | 181 kts | 326° |
| 2026-04-21 17:39 | 41.89655 | -87.26141 | 8995 ft | 181 kts | 326° |
| 2026-04-21 17:40 | 41.90813 | -87.26789 | 8998 ft | 180 kts | 326° |
| 2026-04-21 17:40 | 41.91971 | -87.27438 | 8999 ft | 181 kts | 326° |
| 2026-04-21 17:40 | 41.93132 | -87.28089 | 8999 ft | 181 kts | 326° |
| 2026-04-21 17:40 | 41.94292 | -87.28744 | 8999 ft | 180 kts | 324° |
| 2026-04-21 17:41 | 41.95289 | -87.29632 | 8997 ft | 170 kts | 308° |
| 2026-04-21 17:41 | 41.96054 | -87.30800 | 8996 ft | 163 kts | 295° |
| 2026-04-21 17:41 | 41.96544 | -87.32138 | 9002 ft | 157 kts | 282° |
| 2026-04-21 17:41 | 41.96738 | -87.33557 | 9002 ft | 153 kts | 268° |
| 2026-04-21 17:42 | 41.96711 | -87.34985 | 8972 ft | 156 kts | 272° |
| 2026-04-21 17:42 | 41.96890 | -87.36497 | 8620 ft | 171 kts | 271° |
| 2026-04-21 17:42 | 41.96957 | -87.38150 | 8090 ft | 184 kts | 268° |
| 2026-04-21 17:42 | 41.96977 | -87.39890 | 7580 ft | 184 kts | 267° |
| 2026-04-21 17:43 | 41.96969 | -87.41575 | 7326 ft | 181 kts | 266° |
| 2026-04-21 17:43 | 41.96965 | -87.43263 | 7094 ft | 180 kts | 267° |
| 2026-04-21 17:43 | 41.96962 | -87.44937 | 6867 ft | 179 kts | 266° |
| 2026-04-21 17:43 | 41.96959 | -87.46600 | 6646 ft | 178 kts | 266° |
| 2026-04-21 17:44 | 41.96958 | -87.48260 | 6415 ft | 174 kts | 266° |
| 2026-04-21 17:44 | 41.96959 | -87.49780 | 6210 ft | 155 kts | 266° |
| 2026-04-21 17:44 | 41.96955 | -87.51276 | 5994 ft | 164 kts | 266° |
| 2026-04-21 17:44 | 41.96951 | -87.52835 | 5773 ft | 169 kts | 266° |
| 2026-04-21 17:45 | 41.96949 | -87.54432 | 5544 ft | 172 kts | 266° |
| 2026-04-21 17:45 | 41.96947 | -87.56050 | 5318 ft | 174 kts | 267° |
| 2026-04-21 17:45 | 41.96944 | -87.57691 | 5090 ft | 176 kts | 267° |
| 2026-04-21 17:45 | 41.96942 | -87.59337 | 4861 ft | 176 kts | 267° |
| 2026-04-21 17:46 | 41.96941 | -87.60236 | 4732 ft | 177 kts | 267° |
| 2026-04-21 17:46 | 41.96939 | -87.61793 | 4510 ft | 177 kts | 267° |
| 2026-04-21 17:46 | 41.96938 | -87.62590 | 4394 ft | 177 kts | 268° |
| 2026-04-21 17:46 | 41.96936 | -87.64214 | 4155 ft | 176 kts | 268° |
| 2026-04-21 17:47 | 41.96935 | -87.65860 | 3914 ft | 177 kts | 268° |
| 2026-04-21 17:47 | 41.96934 | -87.67505 | 3686 ft | 176 kts | 268° |
| 2026-04-21 17:47 | 41.96931 | -87.69143 | 3456 ft | 175 kts | 268° |
| 2026-04-21 17:47 | 41.96926 | -87.70778 | 3228 ft | 175 kts | 268° |
| 2026-04-21 17:48 | 41.96927 | -87.72417 | 2993 ft | 175 kts | 268° |
| 2026-04-21 17:48 | 41.96928 | -87.74053 | 2755 ft | 176 kts | 267° |
| 2026-04-21 17:48 | 41.96926 | -87.75712 | 2521 ft | 179 kts | 266° |
| 2026-04-21 17:48 | 41.96920 | -87.77386 | 2277 ft | 179 kts | 265° |
| 2026-04-21 17:49 | 41.96917 | -87.79059 | 2036 ft | 179 kts | 266° |
| 2026-04-21 17:49 | 41.96916 | -87.80736 | 1806 ft | 179 kts | 265° |
| 2026-04-21 17:49 | 41.96912 | -87.82414 | 1562 ft | 180 kts | 266° |
| 2026-04-21 17:49 | 41.96908 | -87.84100 | 1319 ft | 181 kts | 267° |
| 2026-04-21 17:50 | 41.96912 | -87.85776 | 1079 ft | 176 kts | 269° |
| 2026-04-21 17:50 | 41.96910 | -87.87335 | 832 ft | 145 kts | 268° |
| 2026-04-21 17:50 | 41.96913 | -87.88330 | 772 ft | 78 kts | 269° |
| 2026-04-21 17:50 | 41.96908 | -87.88963 | 663 ft | 59 kts | 269° |
| 2026-04-21 17:51 | 41.96917 | -87.89384 | 662 ft | 32 kts | 319° |